Time;durP1;ratioP1;P1;durP2;ratioP2;P2;SDS_P1;SDS_P2;PMS_P1;PMS_P2;Temp;Humidity;BMP_temperature;BMP_pressure;BME280_temperature;BME280_humidity;BME280_pressure;Samples;Min_cycle;Max_cycle;Signal;HPM_P1;HPM_P2
2022/12/06 00:01:16;;;;;;;;;43.00;37.67;;;;;5.21;67.68;101693.66;5019006;28;45374;-70
2022/12/06 00:03:42;;;;;;;;;55.67;38.33;;;;;4.86;67.31;101637.63;5017430;28;45463;-73
2022/12/06 00:06:14;;;;;;;;;46.00;36.67;;;;;5.28;67.41;101686.22;5018798;28;45895;-71
2022/12/06 00:08:40;;;;;;;;;54.33;41.33;;;;;5.18;67.16;101649.81;5020696;28;45275;-70
2022/12/06 00:11:18;;;;;;;;;52.33;40.33;;;;;5.38;66.90;101684.75;5001393;28;45496;-72
2022/12/06 00:13:44;;;;;;;;;45.33;39.00;;;;;5.30;67.74;101673.81;5020214;28;45327;-71
2022/12/06 00:16:13;;;;;;;;;48.00;38.33;;;;;5.01;68.46;101643.84;5018384;28;45404;-72
2022/12/06 00:18:40;;;;;;;;;43.33;38.00;;;;;5.24;68.00;101668.88;5018565;28;45230;-69
2022/12/06 00:21:09;;;;;;;;;34.67;31.33;;;;;5.29;67.37;101669.47;5017199;28;45381;-70
2022/12/06 00:23:37;;;;;;;;;47.00;39.00;;;;;5.29;67.60;101661.56;5017273;28;45360;-73
2022/12/06 00:26:02;;;;;;;;;45.00;38.00;;;;;5.44;67.02;101666.81;5002001;28;46804;-71
2022/12/06 00:28:28;;;;;;;;;42.00;35.33;;;;;4.45;66.94;101495.09;4980433;28;45270;-71
2022/12/06 00:31:01;;;;;;;;;43.67;38.00;;;;;5.53;67.30;101670.69;4998320;28;45271;-72
2022/12/06 00:33:27;;;;;;;;;41.33;36.00;;;;;5.48;66.95;101667.47;4998531;28;45306;-70
2022/12/06 00:35:57;;;;;;;;;49.33;39.67;;;;;5.44;67.55;101656.25;4998217;28;45984;-69
2022/12/06 00:38:23;;;;;;;;;43.67;33.33;;;;;5.48;67.24;101651.66;4998064;28;45404;-71
2022/12/06 00:40:49;;;;;;;;;54.00;39.33;;;;;5.30;67.74;101635.09;4998048;28;45378;-73
2022/12/06 00:43:15;;;;;;;;;49.67;39.67;;;;;5.43;67.26;101624.72;5010177;28;45425;-71
2022/12/06 00:45:40;;;;;;;;;52.33;37.00;;;;;5.18;67.56;101581.28;4995615;28;47363;-73
2022/12/06 00:48:05;;;;;;;;;48.33;37.67;;;;;4.91;66.87;101517.00;4980212;28;45311;-72
2022/12/06 00:50:31;;;;;;;;;42.33;34.00;;;;;5.52;67.28;101628.59;4998013;28;45582;-71
2022/12/06 00:52:56;;;;;;;;;51.67;40.00;;;;;5.64;66.83;101646.34;4980269;28;45509;-73
2022/12/06 00:55:21;;;;;;;;;44.33;38.33;;;;;4.59;67.61;101482.81;4997772;28;45669;-71
2022/12/06 00:57:47;;;;;;;;;49.33;39.67;;;;;5.52;67.56;101645.25;4997872;28;45184;-73
2022/12/06 01:00:13;;;;;;;;;47.33;39.33;;;;;5.38;67.23;101653.09;4996552;28;45795;-71
2022/12/06 01:02:38;;;;;;;;;48.67;39.33;;;;;5.15;67.90;101620.16;4997870;28;45537;-71
2022/12/06 01:05:04;;;;;;;;;40.67;36.67;;;;;5.39;68.67;101641.63;4998014;28;46330;-72
2022/12/06 01:07:29;;;;;;;;;51.00;41.33;;;;;5.18;67.73;101607.66;4997488;28;46121;-72
2022/12/06 01:09:54;;;;;;;;;47.33;39.67;;;;;5.22;68.34;101607.50;4997762;28;45246;-70
2022/12/06 01:12:20;;;;;;;;;43.67;33.67;;;;;5.11;68.24;101585.22;4978805;28;45551;-72
2022/12/06 01:14:45;;;;;;;;;52.33;41.67;;;;;5.35;68.08;101634.84;5011817;28;50207;-70
2022/12/06 01:17:10;;;;;;;;;53.00;39.00;;;;;5.28;67.93;101622.94;5017263;28;45274;-72
2022/12/06 01:19:36;;;;;;;;;55.67;44.00;;;;;5.42;68.13;101649.38;5017487;28;45260;-71
2022/12/06 01:22:01;;;;;;;;;46.33;40.00;;;;;5.23;68.42;101646.94;5017516;28;45248;-72
2022/12/06 01:24:26;;;;;;;;;52.67;38.00;;;;;5.21;68.33;101650.63;5017260;28;53105;-74
2022/12/06 01:26:52;;;;;;;;;52.33;37.67;;;;;5.21;68.81;101640.06;5017166;28;45523;-72
2022/12/06 01:29:17;;;;;;;;;33.67;30.33;;;;;5.05;68.64;101630.41;5017469;28;45532;-71
2022/12/06 01:31:43;;;;;;;;;49.33;37.00;;;;;5.24;69.05;101659.19;5017310;28;46027;-74
2022/12/06 01:34:15;;;;;;;;;45.00;36.00;;;;;5.31;69.15;101646.50;5016779;28;46365;-72
2022/12/06 01:36:40;;;;;;;;;50.00;39.00;;;;;5.24;68.85;101631.97;5016948;28;45376;-71
2022/12/06 01:39:09;;;;;;;;;51.33;41.67;;;;;5.30;69.74;101647.44;5016930;28;45282;-70
2022/12/06 01:41:36;;;;;;;;;48.00;41.00;;;;;5.12;69.35;101613.28;5016336;28;45348;-71
2022/12/06 01:44:02;;;;;;;;;39.67;35.33;;;;;5.28;69.31;101647.53;5016740;28;45363;-71
2022/12/06 01:46:27;;;;;;;;;51.33;39.00;;;;;4.27;69.65;101481.16;5016978;28;45329;-70
2022/12/06 01:49:00;;;;;;;;;54.67;43.67;;;;;5.03;70.14;101611.19;5015923;28;45254;-72
2022/12/06 01:51:26;;;;;;;;;47.67;36.67;;;;;4.77;69.79;101567.84;5003395;28;45375;-70
2022/12/06 01:53:53;;;;;;;;;43.00;35.67;;;;;3.61;69.53;101370.84;4996952;28;45306;-69
2022/12/06 01:56:20;;;;;;;;;44.67;35.00;;;;;5.27;70.65;101653.75;4996980;28;45149;-71
2022/12/06 01:58:49;;;;;;;;;48.67;40.33;;;;;5.23;69.14;101625.88;4997585;28;45599;-73
2022/12/06 02:01:15;;;;;;;;;48.67;39.00;;;;;5.32;69.59;101645.56;4997028;28;45336;-72
2022/12/06 02:03:42;;;;;;;;;45.67;38.67;;;;;4.87;69.75;101574.31;4978890;28;47602;-72
2022/12/06 02:06:08;;;;;;;;;43.00;35.67;;;;;5.36;69.49;101647.94;4996809;28;45297;-71
2022/12/06 02:08:34;;;;;;;;;54.67;38.00;;;;;5.21;69.77;101617.19;4978958;28;45332;-72
2022/12/06 02:11:01;;;;;;;;;37.67;28.33;;;;;5.34;69.66;101641.03;4999235;28;46342;-72
2022/12/06 02:13:28;;;;;;;;;53.00;42.00;;;;;5.41;70.17;101650.31;5000156;28;45863;-71
2022/12/06 02:16:05;;;;;;;;;50.67;40.67;;;;;4.42;69.94;101490.84;4996770;28;45487;-71
2022/12/06 02:18:53;;;;;;;;;46.67;39.67;;;;;5.38;69.91;101650.47;4997007;28;45278;-72
2022/12/06 02:21:42;;;;;;;;;39.33;37.00;;;;;5.42;70.21;101658.13;4997127;28;45268;-72
2022/12/06 02:24:29;;;;;;;;;52.00;41.33;;;;;5.34;70.11;101648.94;4981990;28;46583;-72
2022/12/06 02:27:38;;;;;;;;;43.00;35.33;;;;;5.28;70.02;101659.88;4998615;28;46226;-70
2022/12/06 02:30:34;;;;;;;;;45.33;36.00;;;;;5.29;70.80;101657.13;4982298;28;45539;-71
2022/12/06 02:33:05;;;;;;;;;41.00;35.00;;;;;5.01;70.57;101599.88;5000023;28;47188;-73
2022/12/06 02:35:40;;;;;;;;;47.33;38.33;;;;;5.15;70.21;101631.56;4999689;28;45512;-71
2022/12/06 02:38:14;;;;;;;;;37.00;24.00;;;;;4.95;71.13;101623.94;4982206;28;45264;-71
2022/12/06 02:40:54;;;;;;;;;42.33;36.00;;;;;5.04;70.98;101635.75;4984962;28;45536;-72
2022/12/06 02:43:24;;;;;;;;;42.67;35.33;;;;;4.65;70.89;101568.56;5000938;28;45247;-71
2022/12/06 02:45:54;;;;;;;;;31.67;30.00;;;;;5.20;70.98;101655.00;4999917;28;45689;-72
2022/12/06 02:48:22;;;;;;;;;33.00;32.67;;;;;5.27;71.07;101660.81;4999462;28;45304;-71
2022/12/06 02:50:53;;;;;;;;;38.33;32.00;;;;;5.21;71.21;101663.78;4999785;28;45427;-72
2022/12/06 02:53:23;;;;;;;;;46.00;33.00;;;;;5.17;71.52;101656.03;4999909;28;45163;-72
2022/12/06 02:55:49;;;;;;;;;42.33;34.67;;;;;5.17;71.35;101642.84;4997990;28;46419;-70
2022/12/06 02:58:15;;;;;;;;;34.00;28.00;;;;;4.68;71.42;101554.34;4982071;28;45453;-71
2022/12/06 03:00:54;;;;;;;;;35.67;34.00;;;;;5.08;72.09;101647.81;4981946;28;45460;-72
2022/12/06 03:03:35;;;;;;;;;45.00;37.33;;;;;4.76;71.75;101575.84;4998440;28;45322;-73
2022/12/06 03:06:06;;;;;;;;;35.00;33.00;;;;;5.17;71.81;101663.94;4997767;28;46404;-72
2022/12/06 03:09:05;;;;;;;;;39.00;35.33;;;;;5.28;71.50;101650.16;4999366;28;45211;-72
2022/12/06 03:11:55;;;;;;;;;45.33;35.33;;;;;5.08;71.41;101614.41;4999903;28;45345;-70
2022/12/06 03:14:24;;;;;;;;;48.00;36.67;;;;;4.65;71.53;101554.53;4999245;28;45290;-72
2022/12/06 03:16:58;;;;;;;;;34.67;25.67;;;;;4.17;72.06;101469.44;4998972;28;45389;-72
2022/12/06 03:19:27;;;;;;;;;34.67;33.00;;;;;5.44;71.76;101650.13;4998430;28;45413;-71
2022/12/06 03:21:52;;;;;;;;;44.67;36.67;;;;;5.50;71.01;101652.41;4981452;28;45323;-71
2022/12/06 03:24:21;;;;;;;;;43.00;29.33;;;;;5.39;71.05;101620.53;4999231;28;45487;-72
2022/12/06 03:26:48;;;;;;;;;40.33;34.00;;;;;5.15;71.31;101575.34;4997653;28;46923;-72
2022/12/06 03:29:17;;;;;;;;;40.33;33.33;;;;;5.57;70.90;101652.91;4997791;28;45476;-71
2022/12/06 03:31:45;;;;;;;;;43.00;34.67;;;;;5.52;71.27;101647.91;4999128;28;45338;-72
2022/12/06 03:34:24;;;;;;;;;41.67;34.67;;;;;5.48;71.23;101651.66;4998070;28;45231;-71
2022/12/06 03:36:50;;;;;;;;;48.67;36.33;;;;;5.08;71.23;101585.41;4998851;28;45628;-73
2022/12/06 03:39:35;;;;;;;;;47.33;37.00;;;;;5.59;70.92;101664.19;5000888;28;46340;-72
2022/12/06 03:42:01;;;;;;;;;39.00;30.67;;;;;5.23;72.13;101606.56;5019038;28;45286;-72
2022/12/06 03:44:27;;;;;;;;;34.67;31.33;;;;;5.46;72.36;101653.53;5019167;28;45519;-74
2022/12/06 03:47:00;;;;;;;;;44.00;36.67;;;;;5.45;72.04;101641.28;5013310;28;46551;-70
2022/12/06 03:49:34;;;;;;;;;39.67;28.67;;;;;4.95;71.51;101525.56;4998607;28;45535;-73
2022/12/06 03:51:59;;;;;;;;;44.33;36.33;;;;;5.64;71.22;101646.34;4998873;28;45484;-71
2022/12/06 03:54:25;;;;;;;;;50.67;41.67;;;;;5.29;71.62;101580.69;4998892;28;45642;-72
2022/12/06 03:56:50;;;;;;;;;46.33;38.00;;;;;5.09;71.69;101549.34;4981158;28;47883;-74
2022/12/06 03:59:15;;;;;;;;;42.00;36.67;;;;;5.06;71.71;101560.94;4981189;28;45368;-69
2022/12/06 04:01:41;;;;;;;;;45.00;36.67;;;;;5.17;72.02;101582.22;4998551;28;50754;-73
2022/12/06 04:04:08;;;;;;;;;25.67;18.67;;;;;5.43;72.35;101611.53;4999656;28;45313;-70
2022/12/06 04:06:33;;;;;;;;;56.00;42.67;;;;;5.62;71.89;101664.91;4981646;28;49023;-71
2022/12/06 04:11:42;;;;;;;;;51.67;37.67;;;;;5.72;71.90;101650.22;4998703;28;45302;-70
2022/12/06 04:14:08;;;;;;;;;48.00;38.00;;;;;5.75;72.11;101650.03;4998378;28;45326;-71
2022/12/06 04:19:17;;;;;;;;;44.67;36.33;;;;;5.74;72.03;101648.31;4997936;28;45221;-73
2022/12/06 04:24:26;;;;;;;;;55.33;41.00;;;;;5.55;71.20;101589.69;4998555;28;45266;-72
2022/12/06 04:28:40;;;;;;;;;52.00;39.67;;;;;5.91;70.95;101644.72;4980453;28;48825;-72
2022/12/06 04:40:33;;;;;;;;;53.67;40.33;;;;;5.64;71.04;101578.59;4997820;28;45571;-71
2022/12/06 04:45:42;;;;;;;;;53.00;42.00;;;;;5.83;71.64;101630.28;4998088;28;45628;-71
2022/12/06 04:48:09;;;;;;;;;57.00;41.00;;;;;4.98;70.78;101483.22;4979707;28;48211;-71
2022/12/06 04:50:35;;;;;;;;;44.00;34.33;;;;;5.88;71.15;101641.38;4997713;28;45369;-72
2022/12/06 04:53:00;;;;;;;;;39.67;34.67;;;;;5.89;71.56;101630.75;4997777;28;45505;-71
2022/12/06 04:55:26;;;;;;;;;57.33;43.67;;;;;5.94;71.46;101643.69;4998370;28;45300;-70
2022/12/06 04:57:51;;;;;;;;;52.33;40.33;;;;;5.72;71.22;101602.72;4997498;28;46484;-71
2022/12/06 05:00:17;;;;;;;;;52.00;40.00;;;;;5.88;72.19;101628.19;4997479;28;50762;-71
2022/12/06 05:02:42;;;;;;;;;51.33;37.33;;;;;5.41;71.64;101518.47;4979957;28;45476;-72
2022/12/06 05:05:07;;;;;;;;;49.33;40.00;;;;;6.08;71.32;101630.50;4980210;28;45498;-71
2022/12/06 05:07:33;;;;;;;;;38.33;28.33;;;;;6.08;70.48;101614.66;4997355;28;45948;-70
2022/12/06 05:09:58;;;;;;;;;46.67;39.00;;;;;6.30;70.75;101622.13;4985719;28;45395;-72
2022/12/06 05:12:23;;;;;;;;;45.33;37.33;;;;;6.31;70.28;101629.94;4997449;28;45306;-70
2022/12/06 05:14:49;;;;;;;;;53.00;40.67;;;;;6.12;70.25;101591.56;4997546;28;45313;-71
2022/12/06 05:17:14;;;;;;;;;54.33;42.33;;;;;6.30;70.82;101624.75;4979651;28;47682;-72
2022/12/06 05:19:39;;;;;;;;;50.33;40.33;;;;;6.30;69.89;101630.03;4997339;28;45337;-73
2022/12/06 05:22:04;;;;;;;;;42.67;36.00;;;;;6.25;69.88;101596.00;4997455;28;45227;-72
2022/12/06 05:24:31;;;;;;;;;51.00;38.67;;;;;6.46;69.31;101619.38;4996727;28;45411;-72
2022/12/06 05:26:56;;;;;;;;;54.67;41.00;;;;;6.47;69.36;101610.50;4997455;28;45794;-69
2022/12/06 05:29:21;;;;;;;;;42.00;36.33;;;;;6.27;69.72;101566.84;4979291;28;45247;-70
2022/12/06 05:31:47;;;;;;;;;57.67;41.00;;;;;6.42;69.09;101602.03;4997444;28;45494;-71
2022/12/06 05:34:12;;;;;;;;;52.00;39.67;;;;;6.39;69.35;101595.97;4979644;28;45580;-70
2022/12/06 05:36:37;;;;;;;;;50.33;39.67;;;;;6.43;69.78;101615.13;4996732;28;46689;-71
2022/12/06 05:39:03;;;;;;;;;52.00;40.00;;;;;6.21;69.59;101573.38;4995235;28;49480;-70
2022/12/06 05:41:28;;;;;;;;;40.33;36.67;;;;;5.98;69.29;101514.06;4997374;28;45420;-71
2022/12/06 05:43:53;;;;;;;;;44.00;34.00;;;;;6.60;69.82;101608.75;4979356;28;45315;-69
2022/12/06 05:46:19;;;;;;;;;51.00;39.67;;;;;6.65;68.94;101598.78;4996513;28;46048;-71
2022/12/06 05:48:45;;;;;;;;;50.00;37.67;;;;;6.31;68.69;101547.22;4997163;28;45278;-71
2022/12/06 05:51:10;;;;;;;;;43.67;37.00;;;;;5.94;69.30;101480.91;4996960;28;45266;-71
2022/12/06 05:53:35;;;;;;;;;48.67;40.00;;;;;6.35;68.55;101551.38;4979108;28;45593;-70
2022/12/06 05:56:10;;;;;;;;;47.00;38.00;;;;;6.65;68.59;101593.50;4996704;28;45822;-71
2022/12/06 05:58:36;;;;;;;;;47.00;36.67;;;;;6.73;69.05;101607.06;4999263;28;45444;-70
2022/12/06 06:01:01;;;;;;;;;54.33;42.00;;;;;5.81;68.34;101448.28;5000476;28;45366;-71
2022/12/06 06:03:27;;;;;;;;;40.33;30.33;;;;;6.20;68.49;101524.13;5000520;28;45495;-72
2022/12/06 06:05:56;;;;;;;;;50.33;41.00;;;;;6.43;69.11;101550.91;4982463;28;46875;-72
2022/12/06 06:08:21;;;;;;;;;49.33;39.00;;;;;6.29;68.63;101534.13;4999991;28;45176;-70
2022/12/06 06:10:47;;;;;;;;;48.00;39.67;;;;;6.43;68.58;101550.91;4982480;28;45199;-71
2022/12/06 06:13:12;;;;;;;;;47.00;37.67;;;;;6.59;68.50;101585.94;4989747;28;45529;-70
2022/12/06 06:15:38;;;;;;;;;47.00;38.00;;;;;6.03;69.19;101490.03;5014032;28;45515;-71
2022/12/06 06:18:03;;;;;;;;;33.33;30.00;;;;;6.71;68.45;101619.50;4999644;28;45409;-70
2022/12/06 06:20:29;;;;;;;;;54.67;41.67;;;;;5.15;68.85;101370.59;4982340;28;45601;-74
2022/12/06 06:22:55;;;;;;;;;51.33;39.00;;;;;6.45;69.64;101573.63;4985407;28;45456;-71
2022/12/06 06:25:20;;;;;;;;;52.33;40.00;;;;;6.49;69.33;101564.56;4999912;28;45996;-72
2022/12/06 06:27:46;;;;;;;;;53.00;39.67;;;;;6.81;68.28;101614.47;4999989;28;45449;-72
2022/12/06 06:30:12;;;;;;;;;52.00;39.33;;;;;6.82;68.78;101619.69;4982760;28;45265;-71
2022/12/06 06:32:37;;;;;;;;;48.33;38.33;;;;;4.22;68.81;101183.19;5001031;28;45254;-72
2022/12/06 06:35:04;;;;;;;;;51.67;42.00;;;;;6.86;68.87;101607.97;4999500;28;45290;-72
2022/12/06 06:37:30;;;;;;;;;37.33;34.00;;;;;6.14;68.29;101487.56;4999658;28;45349;-72
2022/12/06 06:39:55;;;;;;;;;42.67;35.33;;;;;6.63;68.35;101574.25;4999992;28;45245;-72
2022/12/06 06:42:21;;;;;;;;;42.67;34.00;;;;;6.82;68.67;101606.47;4982175;28;45460;-72
2022/12/06 06:44:46;;;;;;;;;48.33;36.33;;;;;6.65;68.49;101594.34;4999730;28;46800;-72
2022/12/06 06:47:11;;;;;;;;;50.33;37.33;;;;;6.90;68.66;101629.75;5000539;28;50837;-71
2022/12/06 06:49:37;;;;;;;;;52.00;42.33;;;;;6.87;68.63;101614.94;5000286;28;45551;-72
2022/12/06 06:52:03;;;;;;;;;7.67;3.33;;;;;6.81;68.07;101590.69;5012889;28;45308;-73
2022/12/06 06:54:28;;;;;;;;;47.67;39.33;;;;;7.07;68.29;101624.22;4999065;28;47658;-72
2022/12/06 06:56:55;;;;;;;;;53.00;40.00;;;;;7.12;68.49;101623.94;5000889;28;45277;-72
2022/12/06 06:59:21;;;;;;;;;49.67;36.00;;;;;7.07;68.01;101626.03;4982638;28;45549;-73
2022/12/06 07:01:46;;;;;;;;;43.67;36.33;;;;;6.19;68.05;101480.19;4982034;28;45240;-71
2022/12/06 07:04:12;;;;;;;;;49.67;38.67;;;;;7.04;67.63;101611.22;4999505;28;45427;-73
2022/12/06 07:06:37;;;;;;;;;43.33;35.33;;;;;6.81;67.93;101572.19;4981697;28;45750;-72
2022/12/06 07:09:03;;;;;;;;;53.33;41.33;;;;;7.21;68.09;101628.63;4999522;28;45484;-72
2022/12/06 07:11:28;;;;;;;;;45.33;34.33;;;;;6.93;68.03;101580.19;4982083;28;45332;-71
2022/12/06 07:13:54;;;;;;;;;38.00;34.33;;;;;7.28;67.55;101622.81;4999038;28;45662;-72
2022/12/06 07:16:19;;;;;;;;;50.00;39.00;;;;;7.26;67.73;101631.81;4999348;28;45405;-71
2022/12/06 07:18:46;;;;;;;;;53.67;37.67;;;;;7.08;68.15;101586.28;4981345;28;45243;-72
2022/12/06 07:21:13;;;;;;;;;42.00;35.00;;;;;7.34;67.58;101624.22;4981023;28;45489;-74
2022/12/06 07:23:39;;;;;;;;;31.67;30.00;;;;;7.19;67.55;101588.19;4999811;28;45623;-75
2022/12/06 07:26:08;;;;;;;;;32.33;32.00;;;;;7.38;67.73;101620.41;4999482;28;45407;-73
2022/12/06 07:28:35;;;;;;;;;38.67;33.33;;;;;4.20;67.41;101100.84;4999595;28;45661;-72
2022/12/06 07:31:11;;;;;;;;;32.67;29.67;;;;;6.52;67.74;101471.03;4999495;28;45440;-73
2022/12/06 07:33:37;;;;;;;;;44.67;35.33;;;;;7.44;67.84;101635.03;5018878;28;45504;-72
2022/12/06 07:36:03;;;;;;;;;39.33;36.33;;;;;7.25;67.86;101593.94;5018717;28;45291;-71
2022/12/06 07:38:29;;;;;;;;;50.00;36.33;;;;;6.74;67.54;101507.47;5017463;28;45401;-71
2022/12/06 07:40:59;;;;;;;;;51.33;40.00;;;;;7.26;67.84;101600.91;5018814;28;45714;-71
2022/12/06 07:46:10;;;;;;;;;39.00;36.33;;;;;7.47;67.54;101624.25;5019467;28;45286;-78
2022/12/06 07:48:35;;;;;;;;;44.67;32.33;;;;;7.47;67.99;101624.25;5018541;28;45367;-72
2022/12/06 07:51:04;;;;;;;;;47.00;37.67;;;;;7.35;68.06;101607.38;5000094;28;45394;-71
2022/12/06 07:53:29;;;;;;;;;39.00;33.33;;;;;7.46;67.84;101620.75;5015639;28;46317;-71
2022/12/06 07:55:54;;;;;;;;;36.33;32.00;;;;;7.26;67.89;101579.75;5016778;28;45471;-71
2022/12/06 07:58:20;;;;;;;;;42.67;34.00;;;;;7.13;67.84;101568.28;5018626;28;45812;-72
2022/12/06 08:00:46;;;;;;;;;35.00;30.67;;;;;7.52;68.29;101622.13;5019027;28;45576;-71
2022/12/06 08:03:11;;;;;;;;;38.33;31.67;;;;;7.50;67.92;101614.31;5000543;28;48336;-71
2022/12/06 08:05:36;;;;;;;;;44.33;36.00;;;;;7.53;67.93;101618.53;5019529;28;45314;-71
2022/12/06 08:08:02;;;;;;;;;32.67;29.67;;;;;7.56;67.76;101626.25;5001331;28;45971;-72
2022/12/06 08:10:27;;;;;;;;;41.33;36.00;;;;;7.43;68.25;101634.19;5017655;28;45372;-72
2022/12/06 08:12:52;;;;;;;;;42.33;36.67;;;;;7.30;68.54;101617.44;4999876;28;48178;-70
2022/12/06 08:15:18;;;;;;;;;44.67;34.67;;;;;7.06;68.61;101582.03;5017190;28;45399;-70
2022/12/06 08:17:44;;;;;;;;;44.33;35.00;;;;;6.74;68.56;101537.38;5017509;28;45615;-72
2022/12/06 08:20:09;;;;;;;;;35.67;31.67;;;;;7.51;68.89;101644.25;5000401;28;45544;-71
2022/12/06 08:22:35;;;;;;;;;45.00;38.00;;;;;7.52;68.71;101649.44;4999663;28;47838;-71
2022/12/06 08:25:00;;;;;;;;;39.00;33.33;;;;;7.33;68.68;101620.72;5031353;28;45262;-71
2022/12/06 08:27:26;;;;;;;;;36.67;32.33;;;;;7.13;68.70;101593.88;5009370;28;45475;-71
2022/12/06 08:29:51;;;;;;;;;44.33;34.33;;;;;6.99;69.09;101579.78;5007941;28;45414;-73
2022/12/06 08:32:17;;;;;;;;;45.33;33.33;;;;;7.04;69.08;101587.41;5014718;28;47471;-72
2022/12/06 08:34:42;;;;;;;;;44.33;37.33;;;;;7.32;68.90;101626.09;4999532;28;45436;-71
2022/12/06 08:37:08;;;;;;;;;51.00;40.67;;;;;7.59;69.18;101655.16;5017705;28;45328;-72
2022/12/06 08:39:34;;;;;;;;;52.67;42.67;;;;;7.55;68.74;101649.25;5000076;28;45475;-73
2022/12/06 08:42:02;;;;;;;;;50.33;40.00;;;;;7.48;68.84;101626.78;4999903;28;46756;-72
2022/12/06 08:44:30;;;;;;;;;56.00;43.00;;;;;7.62;68.63;101665.56;5009528;28;45426;-71
2022/12/06 08:46:56;;;;;;;;;56.00;43.00;;;;;7.42;68.73;101640.44;4997501;28;45637;-72
2022/12/06 08:49:24;;;;;;;;;57.33;45.67;;;;;7.40;68.84;101652.03;4999713;28;45381;-73
2022/12/06 08:51:51;;;;;;;;;59.00;45.33;;;;;7.47;68.65;101662.13;4991612;28;47537;-72
2022/12/06 08:54:19;;;;;;;;;54.33;44.33;;;;;6.87;68.48;101561.25;5009047;28;45643;-72
2022/12/06 08:56:45;;;;;;;;;60.50;47.50;;;;;7.61;69.05;101677.97;4999557;28;45295;-73
2022/12/06 08:59:10;;;;;;;;;59.00;44.33;;;;;7.29;68.35;101626.31;4989500;28;45630;-72
2022/12/06 09:01:36;;;;;;;;;64.25;49.50;;;;;7.34;68.60;101640.06;5009359;28;45807;-71
2022/12/06 09:04:03;;;;;;;;;50.50;41.75;;;;;7.63;69.39;101705.16;4998188;28;45488;-71
2022/12/06 09:06:29;;;;;;;;;60.33;43.67;;;;;7.16;69.35;101625.41;5003486;28;45489;-73
2022/12/06 09:08:57;;;;;;;;;61.50;45.50;;;;;7.57;69.83;101684.38;4996795;28;45547;-71
2022/12/06 09:11:22;;;;;;;;;63.75;48.50;;;;;7.33;70.20;101648.97;5001481;28;45689;-71
2022/12/06 09:13:48;;;;;;;;;55.33;43.67;;;;;7.49;70.60;101689.34;4998841;28;46709;-71
2022/12/06 09:16:19;;;;;;;;;60.00;47.67;;;;;4.89;71.09;101289.66;4987139;28;48140;-72
2022/12/06 09:18:46;;;;;;;;;62.50;49.00;;;;;6.85;70.90;101573.72;4998062;28;45455;-72
2022/12/06 09:21:21;;;;;;;;;62.00;49.50;;;;;7.29;70.91;101652.78;4998024;28;45591;-73
2022/12/06 09:23:46;;;;;;;;;64.00;49.75;;;;;7.35;70.96;101660.28;4999034;28;45325;-71
2022/12/06 09:26:12;;;;;;;;;58.33;45.67;;;;;6.03;70.80;101435.47;4998071;28;45480;-72
2022/12/06 09:28:40;;;;;;;;;61.25;45.75;;;;;7.69;70.79;101721.59;5007217;28;45567;-71
2022/12/06 09:31:06;;;;;;;;;58.33;45.67;;;;;7.66;71.25;101711.19;5016670;28;46757;-71
2022/12/06 09:33:32;;;;;;;;;56.33;45.00;;;;;7.66;70.74;101698.81;4991299;28;45457;-71
2022/12/06 09:36:04;;;;;;;;;58.50;45.75;;;;;7.66;71.24;101708.56;4997449;28;45512;-73
2022/12/06 09:38:33;;;;;;;;;59.00;45.33;;;;;7.67;71.04;101708.44;4997212;28;45230;-71
2022/12/06 09:41:38;;;;;;;;;55.25;45.00;;;;;7.66;71.00;101709.41;4979126;28;47969;-71
2022/12/06 09:44:03;;;;;;;;;61.33;46.67;;;;;7.68;71.26;101710.16;4997275;28;45353;-71
2022/12/06 09:46:34;;;;;;;;;51.33;39.67;;;;;7.65;71.24;101701.56;5010204;28;45332;-71
2022/12/06 09:49:26;;;;;;;;;55.50;44.50;;;;;7.30;71.50;101654.47;5013400;28;45349;-73
2022/12/06 09:52:04;;;;;;;;;59.00;47.50;;;;;7.71;71.63;101706.44;4999089;28;45817;-73
2022/12/06 09:54:53;;;;;;;;;64.50;48.75;;;;;7.73;71.41;101709.84;5003751;28;45641;-72
2022/12/06 09:57:31;;;;;;;;;58.25;45.25;;;;;5.55;71.14;101347.03;4966094;28;45426;-72
2022/12/06 10:00:07;;;;;;;;;66.67;46.67;;;;;7.77;71.17;101708.66;5003071;28;45496;-71
2022/12/06 10:02:52;;;;;;;;;55.25;43.50;;;;;7.74;71.08;101708.88;4995152;28;46393;-71
2022/12/06 10:05:23;;;;;;;;;60.50;48.00;;;;;7.76;70.73;101709.63;4985751;28;45476;-71
2022/12/06 10:08:08;;;;;;;;;58.33;44.33;;;;;7.73;70.76;101715.97;4979087;28;45504;-71
2022/12/06 10:10:49;;;;;;;;;56.33;44.33;;;;;7.74;70.83;101722.13;4996921;28;45334;-71
2022/12/06 10:13:26;;;;;;;;;60.67;45.67;;;;;7.76;70.63;101717.56;4996591;28;46625;-71
2022/12/06 10:16:04;;;;;;;;;55.67;44.67;;;;;7.56;70.71;101676.53;5002822;28;45570;-71
2022/12/06 10:18:48;;;;;;;;;56.00;45.33;;;;;7.78;70.58;101711.22;5003543;28;45420;-72
2022/12/06 10:21:51;;;;;;;;;56.00;43.67;;;;;7.78;70.58;101713.00;4996839;28;45332;-73
2022/12/06 10:24:24;;;;;;;;;62.25;45.00;;;;;7.24;70.58;101612.56;5000681;28;48265;-71
2022/12/06 10:26:52;;;;;;;;;57.33;43.33;;;;;7.58;70.43;101670.19;5003628;28;45301;-72
2022/12/06 10:29:25;;;;;;;;;48.00;39.00;;;;;7.78;70.64;101719.16;4996107;28;45331;-72
2022/12/06 10:31:57;;;;;;;;;60.67;45.67;;;;;7.83;70.70;101705.63;5001406;28;45565;-72
2022/12/06 10:34:52;;;;;;;;;54.00;43.33;;;;;7.86;70.62;101702.78;4996609;28;46754;-71
2022/12/06 10:37:33;;;;;;;;;55.00;44.00;;;;;7.77;70.70;101690.16;4996600;28;45488;-72
2022/12/06 10:40:23;;;;;;;;;54.67;40.67;;;;;7.93;70.93;101722.59;4997027;28;45317;-71
2022/12/06 10:43:08;;;;;;;;;49.67;40.00;;;;;7.93;70.63;101712.00;4982919;28;45545;-73
2022/12/06 10:49:08;;;;;;;;;53.33;39.00;;;;;7.93;69.92;101712.84;5019194;28;45432;-72
2022/12/06 10:51:44;;;;;;;;;54.33;44.33;;;;;7.85;70.08;101698.44;5002916;28;45369;-72
2022/12/06 10:54:34;;;;;;;;;50.00;40.67;;;;;6.84;70.03;101550.88;5005717;28;45306;-71
2022/12/06 10:57:06;;;;;;;;;49.67;39.00;;;;;6.86;70.11;101523.38;5002841;28;45775;-72
2022/12/06 10:59:41;;;;;;;;;49.67;40.00;;;;;7.06;70.51;101545.03;5018641;28;46253;-71
2022/12/06 11:02:40;;;;;;;;;53.33;39.00;;;;;8.01;70.24;101704.41;4987623;28;45371;-73
2022/12/06 11:05:17;;;;;;;;;47.67;40.00;;;;;7.89;70.38;101694.63;5003185;28;45559;-71
2022/12/06 11:07:47;;;;;;;;;54.33;41.67;;;;;7.72;69.94;101666.63;5013502;28;47281;-70
2022/12/06 11:10:26;;;;;;;;;46.67;39.33;;;;;7.40;70.02;101605.28;4999390;28;45599;-72
2022/12/06 11:13:41;;;;;;;;;43.00;34.67;;;;;7.98;70.46;101691.34;4998951;28;45565;-72
2022/12/06 11:16:16;;;;;;;;;48.67;37.00;;;;;7.57;70.72;101615.56;4982047;28;45543;-74
2022/12/06 11:18:43;;;;;;;;;49.33;39.67;;;;;8.05;70.48;101694.44;4997795;28;48556;-71
2022/12/06 11:21:44;;;;;;;;;53.67;40.00;;;;;8.09;70.52;101688.81;4983846;28;45685;-71
2022/12/06 11:24:20;;;;;;;;;48.67;39.67;;;;;8.12;70.50;101691.25;5000953;28;45272;-71
2022/12/06 11:26:56;;;;;;;;;43.33;38.00;;;;;6.92;70.58;101490.41;5003302;28;45459;-71
2022/12/06 11:29:21;;;;;;;;;52.33;41.00;;;;;7.60;70.40;101607.44;4986669;28;45753;-71
2022/12/06 11:31:54;;;;;;;;;54.33;43.00;;;;;7.96;70.75;101682.66;4996164;28;45591;-71
2022/12/06 11:34:30;;;;;;;;;57.33;45.67;;;;;5.36;70.72;101248.94;4982907;28;45552;-73
2022/12/06 11:36:57;;;;;;;;;52.00;40.00;;;;;7.51;70.98;101600.13;4996523;28;45563;-71
2022/12/06 11:39:23;;;;;;;;;53.33;41.33;;;;;6.99;70.90;101504.91;5008331;28;46179;-73
2022/12/06 11:41:53;;;;;;;;;57.33;46.33;;;;;7.94;70.95;101658.09;4990121;28;45552;-72
2022/12/06 11:44:24;;;;;;;;;62.75;48.25;;;;;8.08;71.28;101668.59;5013282;28;45623;-73
2022/12/06 11:46:59;;;;;;;;;53.33;44.67;;;;;7.98;70.97;101653.44;5013558;28;45575;-72
2022/12/06 11:49:34;;;;;;;;;62.25;46.25;;;;;7.84;71.35;101631.41;5009322;28;46055;-72
2022/12/06 11:52:06;;;;;;;;;62.00;47.75;;;;;8.08;71.32;101660.66;4995871;28;46687;-72
2022/12/06 11:54:58;;;;;;;;;56.75;44.75;;;;;7.66;71.12;101592.09;5017242;28;45341;-71
2022/12/06 11:58:06;;;;;;;;;58.75;45.00;;;;;8.02;71.15;101647.84;5010136;28;45636;-72